MMMX Airport Information

Runway Information
Runway 05L Length 12966 ft width 148 ft
Elevation 7309 ft Threshold 1034 ft Heading 59
Runway 23R Length 12966 ft Width 148 ft
Elevation 7311 ft Threshold 1641 ft Heading 239
Runway 05R Length 12795 ft width 148 ft
Elevation 7316 ft Threshold 1493 ft Heading 59
Runway 23L Length 12795 ft Width 148 ft
Elevation 7295 ft Threshold 0 ft Heading 239
Airport Frequencies
Type APP Name MEXICO APP Frequency 121.2 MHZ
Type ARR Name MEXICO ARR Frequency 129.6 MHZ
Type ATIS Name ATIS Frequency 127.65 MHZ
Type CLD Name MEXICO CLN Frequency 122.1 MHZ
Type DEP Name MEXICO DEP Frequency 120.5 MHZ
Type GND Name GND Frequency 121 MHZ
Type RDO Name MEXICO INF Frequency 126.9 MHZ
Type TWR Name MEXICO TWR Frequency 118.55 MHZ
Airport Navaids
Type VOR-DME Name Mexico Frequency 115600 KHZ
Type NDB Name Plaza Frequency 370 KHZ
Type NDB Name Tepexpan Frequency 359 KHZ
Airport Weather Information & NOTAM
ADDS - METARS form results

(2209 UTC 22 July 2018)
 
METAR text: MMMX 222143Z 12006KT 7SM BKN020 25/06 A3028 NOSIG RMK 8/200 HZY CI
Conditions at: MMMX (MEXICO CITY/LICE, MX) observed 2143 UTC 22 July 2018
Temperature: 25.0°C (77°F)
Dewpoint: 6.0°C (43°F) [RH = 30%]
Pressure (altimeter): 30.28 inches Hg (1025.5 mb)
Winds: from the ESE (120 degrees) at 7 MPH (6 knots; 3.1 m/s)
Visibility: 7 miles (11 km)
Ceiling: 2000 feet AGL
Clouds: broken clouds at 2000 feet AGL
Weather: no significant weather observed at this time